createdAt,value
2024-02-24T00:00:24.328Z,99192.13
2024-02-24T00:02:52.527Z,99191.56
2024-02-24T00:05:20.798Z,99202.88
2024-02-24T00:07:50.178Z,99201.94
2024-02-24T00:10:19.037Z,99207.56
2024-02-24T00:12:47.328Z,99209.22
2024-02-24T00:15:15.686Z,99210.16
2024-02-24T00:17:44.346Z,99206.06
2024-02-24T00:20:13.066Z,99209.16
2024-02-24T00:22:41.524Z,99204.59
2024-02-24T00:25:09.734Z,99206.88
2024-02-24T00:27:39.417Z,99222.91
2024-02-24T00:30:10.726Z,99213.34
2024-02-24T00:32:42.495Z,99224.56
2024-02-24T00:35:10.757Z,99215.13
2024-02-24T00:37:38.909Z,99220.69
2024-02-24T00:40:08.742Z,99224.63
2024-02-24T00:42:38.492Z,99225.94
2024-02-24T00:47:55.439Z,99235.84
2024-02-24T00:50:29.777Z,99232.31
2024-02-24T00:52:58.209Z,99241.03
2024-02-24T00:55:26.507Z,99238.34
2024-02-24T00:57:58.827Z,99232.19
2024-02-24T01:00:27.024Z,99228.47
2024-02-24T01:02:55.294Z,99230.00
2024-02-24T01:05:23.479Z,99228.03
2024-02-24T01:07:57.197Z,99230.63
2024-02-24T01:10:30.002Z,99234.72
2024-02-24T01:12:58.273Z,99226.56
2024-02-24T01:15:26.700Z,99234.25
2024-02-24T01:17:58.187Z,99235.50
2024-02-24T01:20:30.630Z,99247.28
2024-02-24T01:23:01.409Z,99251.38
2024-02-24T01:25:29.913Z,99262.47
2024-02-24T01:28:01.344Z,99265.19
2024-02-24T01:30:29.591Z,99269.53
2024-02-24T01:32:57.988Z,99275.69
2024-02-24T01:35:26.350Z,99275.19
2024-02-24T01:37:54.548Z,99279.34
2024-02-24T01:40:22.780Z,99280.41
2024-02-24T01:42:50.944Z,99269.56
2024-02-24T01:45:19.218Z,99275.47
2024-02-24T01:47:47.799Z,99276.41
2024-02-24T01:50:16.677Z,99290.53
2024-02-24T01:52:50.654Z,99285.94
2024-02-24T01:55:20.060Z,99290.06
2024-02-24T01:57:52.003Z,99284.75
2024-02-24T02:00:20.290Z,99283.13
2024-02-24T02:02:49.063Z,99300.88
2024-02-24T02:05:17.468Z,99303.47
2024-02-24T02:07:45.663Z,99295.81
2024-02-24T02:10:13.883Z,99286.97
2024-02-24T02:12:45.086Z,99283.91
2024-02-24T02:15:13.471Z,99289.09
2024-02-24T02:17:41.769Z,99291.56
2024-02-24T02:20:10.462Z,99291.34
2024-02-24T02:22:38.687Z,99287.81
2024-02-24T02:25:07.087Z,99298.38
2024-02-24T02:27:35.316Z,99294.16
2024-02-24T02:30:04.633Z,99289.94
2024-02-24T02:32:33.269Z,99290.38
2024-02-24T02:35:01.503Z,99296.72
2024-02-24T02:37:29.621Z,99297.88
2024-02-24T02:39:57.832Z,99293.66
2024-02-24T02:42:26.018Z,99297.06
2024-02-24T02:44:54.193Z,99297.41
2024-02-24T02:47:24.189Z,99295.88
2024-02-24T02:49:52.879Z,99299.84
2024-02-24T02:52:24.575Z,99298.41
2024-02-24T02:54:52.785Z,99291.44
2024-02-24T02:57:21.019Z,99287.03
2024-02-24T02:59:49.350Z,99293.38
2024-02-24T03:02:17.660Z,99285.72
2024-02-24T03:04:45.989Z,99286.66
2024-02-24T03:07:14.199Z,99286.34
2024-02-24T03:09:48.181Z,99300.44
2024-02-24T03:12:17.069Z,99305.19
2024-02-24T03:14:45.841Z,99311.06
2024-02-24T03:17:14.215Z,99323.56
2024-02-24T03:19:42.568Z,99328.94
2024-02-24T03:22:10.784Z,99325.88
2024-02-24T03:24:45.319Z,99321.00
2024-02-24T03:27:13.641Z,99332.94
2024-02-24T03:29:42.065Z,99336.75
2024-02-24T03:32:11.635Z,99337.47
2024-02-24T03:34:40.608Z,99344.88
2024-02-24T03:37:08.935Z,99353.69
2024-02-24T03:39:39.250Z,99357.13
2024-02-24T03:42:07.567Z,99362.78
2024-02-24T03:44:35.833Z,99371.66
2024-02-24T03:47:04.073Z,99373.13
2024-02-24T03:49:32.390Z,99381.19
2024-02-24T03:52:00.624Z,99379.03
2024-02-24T03:54:28.943Z,99377.50
2024-02-24T03:56:57.190Z,99379.97
2024-02-24T03:59:25.507Z,99378.22
2024-02-24T04:01:53.876Z,99389.47
2024-02-24T04:04:22.070Z,99395.25
2024-02-24T04:06:50.334Z,99396.00
2024-02-24T04:09:21.591Z,99393.59
2024-02-24T04:11:52.080Z,99396.84
2024-02-24T04:14:20.875Z,99407.91
2024-02-24T04:16:49.182Z,99403.25
2024-02-24T04:19:17.424Z,99416.09
2024-02-24T04:21:46.238Z,99422.38
2024-02-24T04:24:14.482Z,99415.03
2024-02-24T04:26:43.085Z,99423.09
2024-02-24T04:29:11.331Z,99422.88
2024-02-24T04:31:41.252Z,99431.63
2024-02-24T04:34:09.593Z,99428.03
2024-02-24T04:36:44.325Z,99417.41
2024-02-24T04:39:12.499Z,99421.25
2024-02-24T04:41:40.987Z,99428.88
2024-02-24T04:44:09.379Z,99429.81
2024-02-24T04:46:39.752Z,99429.59
2024-02-24T04:49:08.154Z,99432.78
2024-02-24T04:51:36.446Z,99427.75
2024-02-24T04:54:05.573Z,99440.34
2024-02-24T04:56:33.771Z,99446.03
2024-02-24T04:59:02.054Z,99450.53
2024-02-24T05:01:30.483Z,99464.59
2024-02-24T05:03:59.059Z,99463.94
2024-02-24T05:06:30.086Z,99474.78
2024-02-24T05:08:58.406Z,99474.66
2024-02-24T05:11:26.861Z,99475.94
2024-02-24T05:13:55.053Z,99489.91
2024-02-24T05:16:23.307Z,99493.94
2024-02-24T05:18:51.563Z,99496.16
2024-02-24T05:21:23.530Z,99498.63
2024-02-24T05:23:51.896Z,99489.34
2024-02-24T05:26:27.560Z,99492.75
2024-02-24T05:28:56.873Z,99501.09
2024-02-24T05:31:25.183Z,99497.28
2024-02-24T05:33:55.009Z,99491.47
2024-02-24T05:36:23.281Z,99501.19
2024-02-24T05:38:51.503Z,99514.06
2024-02-24T05:41:22.682Z,99522.63
2024-02-24T05:43:53.265Z,99521.78
2024-02-24T05:46:21.539Z,99524.41
2024-02-24T05:48:49.882Z,99522.84
2024-02-24T05:51:19.441Z,99526.75
2024-02-24T05:53:47.667Z,99530.53
2024-02-24T05:56:15.932Z,99528.66
2024-02-24T05:58:44.373Z,99539.00
2024-02-24T06:01:15.837Z,99534.78
2024-02-24T06:03:44.272Z,99548.56
2024-02-24T06:06:12.822Z,99546.28
2024-02-24T06:08:41.547Z,99553.91
2024-02-24T06:11:09.877Z,99548.59
2024-02-24T06:13:38.156Z,99555.72
2024-02-24T06:16:07.169Z,99562.94
2024-02-24T06:18:35.455Z,99570.78
2024-02-24T06:21:04.578Z,99570.97
2024-02-24T06:23:34.032Z,99564.28
2024-02-24T06:26:02.204Z,99563.16
2024-02-24T06:28:30.359Z,99573.66
2024-02-24T06:30:59.601Z,99574.31
2024-02-24T06:33:27.958Z,99589.91
2024-02-24T06:35:56.417Z,99595.38
2024-02-24T06:38:27.566Z,99590.31
2024-02-24T06:40:55.824Z,99592.47
2024-02-24T06:43:24.074Z,99606.03
2024-02-24T06:45:52.245Z,99614.31
2024-02-24T06:48:20.887Z,99624.13
2024-02-24T06:50:49.278Z,99620.34
2024-02-24T06:53:17.581Z,99619.19
2024-02-24T06:55:45.885Z,99616.25
2024-02-24T06:58:14.116Z,99620.66
2024-02-24T07:00:47.354Z,99622.56
2024-02-24T07:03:16.393Z,99628.81
2024-02-24T07:05:46.521Z,99634.69
2024-02-24T07:08:14.886Z,99648.41
2024-02-24T07:10:43.149Z,99649.78
2024-02-24T07:13:11.339Z,99648.94
2024-02-24T07:15:39.935Z,99635.91
2024-02-24T07:18:08.389Z,99641.66
2024-02-24T07:20:40.511Z,99650.84
2024-02-24T07:23:08.879Z,99655.03
2024-02-24T07:25:38.556Z,99655.59
2024-02-24T07:28:07.623Z,99658.66
2024-02-24T07:30:35.764Z,99660.25
2024-02-24T07:33:04.662Z,99661.31
2024-02-24T07:35:36.094Z,99664.06
2024-02-24T07:38:04.620Z,99662.69
2024-02-24T07:40:35.133Z,99660.69
2024-02-24T07:43:03.629Z,99668.25
2024-02-24T07:45:31.852Z,99675.78
2024-02-24T07:48:00.087Z,99679.31
2024-02-24T07:50:28.582Z,99677.69
2024-02-24T07:52:57.197Z,99684.53
2024-02-24T07:55:25.334Z,99683.50
2024-02-24T07:57:53.854Z,99695.88
2024-02-24T08:00:23.734Z,99682.09
2024-02-24T08:02:57.112Z,99689.59
2024-02-24T08:05:25.794Z,99691.25
2024-02-24T08:07:54.030Z,99691.94
2024-02-24T08:10:22.230Z,99691.44
2024-02-24T08:12:50.483Z,99696.44
2024-02-24T08:15:19.394Z,99691.22
2024-02-24T08:17:47.697Z,99699.72
2024-02-24T08:20:16.134Z,99700.03
2024-02-24T08:22:46.990Z,99712.13
2024-02-24T08:25:15.155Z,99718.44
2024-02-24T08:27:43.400Z,99722.59
2024-02-24T08:30:13.171Z,99726.03
2024-02-24T08:32:41.521Z,99728.69
2024-02-24T08:35:10.185Z,99727.94
2024-02-24T08:37:38.579Z,99734.09
2024-02-24T08:40:07.398Z,99726.56
2024-02-24T08:42:35.656Z,99736.63
2024-02-24T08:45:05.906Z,99745.50
2024-02-24T08:47:34.302Z,99735.53
2024-02-24T08:50:02.634Z,99741.50
2024-02-24T08:52:38.050Z,99741.22
2024-02-24T08:55:14.265Z,99740.22
2024-02-24T08:57:42.509Z,99751.00
2024-02-24T09:00:11.413Z,99745.78
2024-02-24T09:02:39.918Z,99752.50
2024-02-24T09:05:09.011Z,99759.19
2024-02-24T09:07:40.065Z,99763.28
2024-02-24T09:10:09.552Z,99758.63
2024-02-24T09:12:37.932Z,99753.19
2024-02-24T09:15:07.498Z,99755.59
2024-02-24T09:17:35.852Z,99761.00
2024-02-24T09:20:04.767Z,99764.00
2024-02-24T09:22:33.079Z,99765.63
2024-02-24T09:25:02.618Z,99764.00
2024-02-24T09:27:30.933Z,99765.00
2024-02-24T09:29:59.384Z,99759.72
2024-02-24T09:32:27.867Z,99763.50
2024-02-24T09:34:56.167Z,99763.66
2024-02-24T09:37:24.378Z,99770.56
2024-02-24T09:39:52.589Z,99756.94
2024-02-24T09:42:26.414Z,99766.47
2024-02-24T09:45:00.659Z,99762.69
2024-02-24T09:47:30.446Z,99761.72
2024-02-24T09:50:00.660Z,99758.06
2024-02-24T09:52:32.094Z,99767.94
2024-02-24T09:55:00.544Z,99765.94
2024-02-24T09:57:33.968Z,99772.66
2024-02-24T10:00:03.522Z,99765.56
2024-02-24T10:02:40.868Z,99772.47
2024-02-24T10:05:12.217Z,99780.81
2024-02-24T10:07:41.029Z,99768.13
2024-02-24T10:10:11.909Z,99782.56
2024-02-24T10:12:40.146Z,99779.59
2024-02-24T10:15:09.146Z,99785.03
2024-02-24T10:17:39.907Z,99779.16
2024-02-24T10:20:09.915Z,99783.09
2024-02-24T10:22:40.947Z,99790.28
2024-02-24T10:25:09.368Z,99787.56
2024-02-24T10:27:37.738Z,99788.09
2024-02-24T10:30:10.098Z,99794.16
2024-02-24T10:32:40.760Z,99789.41
2024-02-24T10:35:10.065Z,99795.63
2024-02-24T10:37:56.431Z,99805.78
2024-02-24T10:40:26.697Z,99804.09
2024-02-24T10:42:56.003Z,99806.06
2024-02-24T10:45:25.940Z,99810.69
2024-02-24T10:47:54.225Z,99808.34
2024-02-24T10:50:22.538Z,99810.41
2024-02-24T10:52:52.371Z,99808.50
2024-02-24T10:55:24.035Z,99813.88
2024-02-24T10:57:56.053Z,99816.34
2024-02-24T11:00:32.010Z,99823.25
2024-02-24T11:03:01.933Z,99808.66
2024-02-24T11:05:30.509Z,99814.53
2024-02-24T11:07:59.010Z,99813.81
2024-02-24T11:10:34.637Z,99810.50
2024-02-24T11:13:03.801Z,99813.34
2024-02-24T11:15:33.395Z,99806.69
2024-02-24T11:18:01.817Z,99818.16
2024-02-24T11:20:38.465Z,99816.22
2024-02-24T11:23:23.423Z,99820.22
2024-02-24T11:26:17.504Z,99814.31
2024-02-24T11:29:00.163Z,99809.34
2024-02-24T11:31:35.529Z,99815.63
2024-02-24T11:34:12.328Z,99814.56
2024-02-24T11:36:42.904Z,99811.00
2024-02-24T11:39:13.619Z,99809.75
2024-02-24T11:41:42.574Z,99802.38
2024-02-24T11:44:12.147Z,99803.09
2024-02-24T11:46:45.037Z,99812.78
2024-02-24T11:49:13.390Z,99814.94
2024-02-24T11:51:44.440Z,99810.16
2024-02-24T11:54:14.124Z,99804.88
2024-02-24T11:56:42.731Z,99807.47
2024-02-24T11:59:11.174Z,99800.59
2024-02-24T12:01:39.475Z,99803.72
2024-02-24T12:04:07.948Z,99810.47
2024-02-24T12:06:36.244Z,99805.38
2024-02-24T12:09:04.739Z,99803.91
2024-02-24T12:11:36.501Z,99799.78
2024-02-24T12:14:04.848Z,99802.34
2024-02-24T12:16:33.491Z,99804.59
2024-02-24T12:19:06.825Z,99804.63
2024-02-24T12:21:34.960Z,99811.78
2024-02-24T12:24:03.169Z,99797.91
2024-02-24T12:26:31.640Z,99807.75
2024-02-24T12:28:59.855Z,99802.88
2024-02-24T12:31:28.340Z,99802.13
2024-02-24T12:33:59.484Z,99805.25
2024-02-24T12:36:32.388Z,99813.16
2024-02-24T12:39:00.729Z,99811.59
2024-02-24T12:41:31.314Z,99809.91
2024-02-24T12:43:59.523Z,99807.25
2024-02-24T12:46:27.699Z,99808.47
2024-02-24T12:48:56.298Z,99812.06
2024-02-24T12:51:27.493Z,99806.41
2024-02-24T12:53:55.761Z,99809.44
2024-02-24T12:56:24.034Z,99814.63
2024-02-24T12:58:52.328Z,99815.22
2024-02-24T13:01:20.671Z,99820.50
2024-02-24T13:03:49.690Z,99826.75
2024-02-24T13:06:18.115Z,99827.25
2024-02-24T13:08:47.419Z,99827.41
2024-02-24T13:11:15.831Z,99830.53
2024-02-24T13:13:44.368Z,99823.75
2024-02-24T13:16:12.661Z,99830.19
2024-02-24T13:18:41.123Z,99821.03
2024-02-24T13:21:09.759Z,99827.59
2024-02-24T13:23:37.886Z,99832.66
2024-02-24T13:26:06.073Z,99829.88
2024-02-24T13:28:34.591Z,99819.53
2024-02-24T13:31:02.764Z,99822.31
2024-02-24T13:33:31.427Z,99820.00
2024-02-24T13:36:00.180Z,99824.44
2024-02-24T13:38:28.607Z,99831.19
2024-02-24T13:40:56.978Z,99824.94
2024-02-24T13:43:25.182Z,99832.31
2024-02-24T13:45:57.170Z,99821.97
2024-02-24T13:48:28.305Z,99833.16
2024-02-24T13:50:56.772Z,99839.00
2024-02-24T13:53:24.941Z,99833.63
2024-02-24T13:55:53.190Z,99839.06
2024-02-24T13:58:21.397Z,99840.72
2024-02-24T14:00:49.675Z,99838.06
2024-02-24T14:03:17.853Z,99840.13
2024-02-24T14:05:49.445Z,99840.66
2024-02-24T14:08:17.762Z,99842.84
2024-02-24T14:10:45.981Z,99849.09
2024-02-24T14:13:14.233Z,99850.56
2024-02-24T14:15:47.934Z,99847.31
2024-02-24T14:18:16.282Z,99839.50
2024-02-24T14:20:44.652Z,99836.28
2024-02-24T14:23:12.911Z,99835.41
2024-02-24T14:25:41.590Z,99834.41
2024-02-24T14:28:13.635Z,99839.09
2024-02-24T14:30:44.075Z,99839.28
2024-02-24T14:33:12.909Z,99832.66
2024-02-24T14:35:42.867Z,99835.78
2024-02-24T14:38:11.149Z,99837.22
2024-02-24T14:40:39.371Z,99835.56
2024-02-24T14:43:07.551Z,99836.06
2024-02-24T14:45:35.726Z,99840.47
2024-02-24T14:48:06.263Z,99835.56
2024-02-24T14:50:34.878Z,99827.84
2024-02-24T14:53:03.260Z,99829.63
2024-02-24T14:55:31.460Z,99834.25
2024-02-24T14:57:59.647Z,99835.16
2024-02-24T15:00:28.452Z,99830.09
2024-02-24T15:03:08.676Z,99830.09
2024-02-24T15:05:39.224Z,99827.47
2024-02-24T15:08:07.888Z,99828.09
2024-02-24T15:10:36.064Z,99829.38
2024-02-24T15:13:05.276Z,99839.56
2024-02-24T15:15:33.571Z,99842.50
2024-02-24T15:18:04.610Z,99838.53
2024-02-24T15:20:33.741Z,99835.56
2024-02-24T15:23:02.071Z,99831.66
2024-02-24T15:25:30.159Z,99834.59
2024-02-24T15:27:59.916Z,99846.34
2024-02-24T15:30:28.143Z,99854.56
2024-02-24T15:32:59.352Z,99856.38
2024-02-24T15:35:27.911Z,99853.09
2024-02-24T15:37:56.194Z,99854.38
2024-02-24T15:40:42.849Z,99851.59
2024-02-24T15:43:11.049Z,99843.25
2024-02-24T15:45:39.187Z,99857.84
2024-02-24T15:48:09.282Z,99851.41
2024-02-24T15:50:37.585Z,99852.00
2024-02-24T15:53:05.851Z,99855.56
2024-02-24T15:55:33.990Z,99858.19
2024-02-24T15:58:02.609Z,99863.75
2024-02-24T16:00:33.718Z,99870.25
2024-02-24T16:03:04.893Z,99866.88
2024-02-24T16:05:33.679Z,99864.72
2024-02-24T16:08:02.062Z,99863.69
2024-02-24T16:10:30.406Z,99873.25
2024-02-24T16:12:58.913Z,99874.03
2024-02-24T16:15:27.299Z,99879.84
2024-02-24T16:18:14.686Z,99875.75
2024-02-24T16:20:44.571Z,99877.31
2024-02-24T16:23:15.121Z,99883.00
2024-02-24T16:25:43.460Z,99879.00
2024-02-24T16:28:14.786Z,99881.13
2024-02-24T16:30:43.109Z,99887.47
2024-02-24T16:33:11.405Z,99886.09
2024-02-24T16:35:39.703Z,99888.50
2024-02-24T16:38:07.941Z,99887.97
2024-02-24T16:40:36.149Z,99891.69
2024-02-24T16:43:04.620Z,99898.91
2024-02-24T16:45:32.916Z,99902.91
2024-02-24T16:48:01.510Z,99902.66
2024-02-24T16:50:29.901Z,99899.94
2024-02-24T16:52:58.185Z,99898.19
2024-02-24T16:55:26.346Z,99897.03
2024-02-24T16:57:54.511Z,99902.13
2024-02-24T17:00:22.957Z,99906.72
2024-02-24T17:02:51.235Z,99903.97
2024-02-24T17:05:21.987Z,99908.78
2024-02-24T17:07:52.413Z,99908.66
2024-02-24T17:10:20.627Z,99902.34
2024-02-24T17:12:49.101Z,99910.75
2024-02-24T17:15:17.332Z,99913.78
2024-02-24T17:17:47.488Z,99913.09
2024-02-24T17:20:16.552Z,99922.03
2024-02-24T17:22:44.828Z,99930.72
2024-02-24T17:25:13.042Z,99935.38
2024-02-24T17:27:41.255Z,99934.41
2024-02-24T17:30:10.133Z,99941.97
